Airfield :
LOGIN :

Register | Disclaimer

   EN    FR    IT 

 










Legend :    VFR   Marginal VFR   IFR   Intensive IFR   Very Intensive IFR
Visi :
Ceiling :
>= 8 km
>= 3000ft
5 to 8 km
1000 to 3000 ft
1500m to 5 km
500 to 1000 ft
800 to 1500m
200 to 500 ft
< 800m
< 200 ft
Symbols :   Thunderstorms  Fog  Heavy snow  Heavy precipitations  Wind > 20 kt
SIGMETs :     Misc.  Thunderstorms  Icing  Turbulence  Mountain Waves  Volcanic Ashes







- Airport Elevation : 72 ft
- IATA code : UDE


EHVK - Volkel Airbase

CURRENT METAR :
  • 211625Z AUTO 18006KT 9999 OVC100 04/01 Q1015 BLU

EXPIRED METARs :
  • 211555Z AUTO 19005KT 160V220 9999 OVC092 04/01 Q1015 BLU
  • 211525Z AUTO 20006KT 170V230 9999 OVC110 05/02 Q1016 BLU
  • 211455Z AUTO 21006KT 180V240 9999 FEW036 OVC150 05/02 Q1016 BLU
  • 211425Z AUTO 22007KT 9999 FEW038 OVC160 05/02 Q1016 BLU
  • 211359Z AUTO 22006KT 190V250 9999 FEW019 SCT026 OVC180 05/02 Q1016 BLU
  • 211355Z AUTO 22007KT 9999 SCT019 BKN022 BKN027 05/02 Q1016 WHT
  • 211348Z AUTO 22008KT 9999 SCT019 BKN024 BKN028 05/02 Q1016 WHT
  • 211325Z AUTO 22007KT 9999 FEW043 OVC210 06/02 Q1016 BLU

Expired Forecast.
No reported NOTAMs for that airfield.



MET'MAP, your aeronautical weather chart ! - Copyright ORBIFLY December 2007 - Disclaimer

ORBIFLY MET'MAP TEAM :

Programming & Development : Alexandra Zaïnal
Concept & Development : Baudouin d'Aumeries
Co-Development & Prog : Marc-Olivier Méhu
Technical & hardware support : Manuel Goepfert

Contact : metmap@orbifly.com




SOURCES & CREDITS :

   NOAA